Time;durP1;ratioP1;P1;durP2;ratioP2;P2;SDS_P1;SDS_P2;PMS_P1;PMS_P2;Temp;Humidity;BMP_temperature;BMP_pressure;BME280_temperature;BME280_humidity;BME280_pressure;Samples;Min_cycle;Max_cycle;Signal;HPM_P1;HPM_P2
2023/08/22 00:01:38;;;;;;;11.65;8.82;;;;;;;27.56;100.00;96572.97;6242070;23;20003;-80
2023/08/22 00:04:04;;;;;;;14.15;8.45;;;;;;;27.44;100.00;96578.56;6190896;23;20065;-80
2023/08/22 00:06:29;;;;;;;14.38;9.30;;;;;;;27.43;100.00;96574.25;6190318;23;20004;-80
2023/08/22 00:08:55;;;;;;;11.95;9.55;;;;;;;27.29;100.00;96570.31;6216019;23;20387;-80
2023/08/22 00:11:20;;;;;;;9.65;8.60;;;;;;;27.67;100.00;96568.47;6190316;23;20528;-80
2023/08/22 00:13:46;;;;;;;12.43;10.32;;;;;;;27.30;100.00;96571.13;6190098;23;20052;-81
2023/08/22 00:16:12;;;;;;;11.90;9.07;;;;;;;27.36;100.00;96565.53;6189027;23;20494;-80
2023/08/22 00:18:37;;;;;;;11.65;9.07;;;;;;;27.06;100.00;96570.63;6189359;23;20456;-80
2023/08/22 00:21:03;;;;;;;13.00;9.23;;;;;;;26.93;100.00;96571.88;6188976;23;20036;-80
2023/08/22 00:23:29;;;;;;;12.27;9.88;;;;;;;27.07;100.00;96569.59;6190206;23;20007;-80
2023/08/22 00:25:55;;;;;;;12.07;9.45;;;;;;;27.09;100.00;96564.72;6215220;23;20018;-80
2023/08/22 00:28:20;;;;;;;12.05;9.52;;;;;;;27.32;100.00;96560.91;6190774;23;20437;-80
2023/08/22 00:30:46;;;;;;;12.57;10.10;;;;;;;27.02;100.00;96565.75;6214935;23;20007;-80
2023/08/22 00:33:12;;;;;;;16.30;10.07;;;;;;;27.26;100.00;96558.19;6241974;23;19996;-80
2023/08/22 00:35:37;;;;;;;12.55;10.07;;;;;;;26.69;100.00;96555.16;6189591;23;20008;-80
2023/08/22 00:38:03;;;;;;;13.18;10.00;;;;;;;26.63;100.00;96558.88;6190490;23;20000;-80
2023/08/22 00:40:29;;;;;;;11.93;10.45;;;;;;;26.60;100.00;96552.13;6189323;23;20005;-81
2023/08/22 00:42:54;;;;;;;11.45;9.65;;;;;;;26.68;100.00;96556.22;6190209;23;20383;-81
2023/08/22 00:45:20;;;;;;;17.83;10.05;;;;;;;26.46;100.00;96558.91;6190303;23;20004;-80
2023/08/22 00:47:46;;;;;;;11.52;9.38;;;;;;;26.33;100.00;96549.34;6190345;23;20008;-80
2023/08/22 00:50:12;;;;;;;19.30;11.35;;;;;;;26.30;100.00;96553.34;6214395;23;20023;-80
2023/08/22 00:52:37;;;;;;;13.23;10.48;;;;;;;26.18;100.00;96558.03;6189237;23;19996;-80
2023/08/22 00:55:04;;;;;;;13.38;10.20;;;;;;;26.16;100.00;96554.00;6189296;23;20012;-80
2023/08/22 00:57:30;;;;;;;13.65;9.80;;;;;;;26.25;100.00;96557.84;6189609;23;20019;-80
2023/08/22 00:59:57;;;;;;;13.23;10.50;;;;;;;26.34;100.00;96553.66;6189067;23;20004;-80
2023/08/22 01:02:23;;;;;;;13.63;10.05;;;;;;;26.52;100.00;96550.66;6212942;23;20000;-80
2023/08/22 01:04:51;;;;;;;14.40;10.10;;;;;;;26.43;100.00;96552.16;6189774;23;20008;-80
2023/08/22 01:07:37;;;;;;;15.23;10.68;;;;;;;26.37;100.00;96552.34;6214752;23;19996;-80
2023/08/22 01:10:12;;;;;;;12.95;10.52;;;;;;;26.27;100.00;96547.66;6188814;23;20004;-80
2023/08/22 01:12:59;;;;;;;14.30;9.55;;;;;;;26.17;100.00;96547.53;6189552;23;20003;-80
2023/08/22 01:15:26;;;;;;;12.40;10.02;;;;;;;26.01;100.00;96543.81;6190052;23;20016;-80
2023/08/22 01:17:56;;;;;;;12.10;9.32;;;;;;;26.23;100.00;96550.03;6188869;23;20008;-80
2023/08/22 01:20:22;;;;;;;13.15;10.02;;;;;;;26.29;100.00;96548.19;6189093;23;20012;-80
2023/08/22 01:22:48;;;;;;;13.65;9.88;;;;;;;26.08;100.00;96545.25;6214823;23;20008;-80
2023/08/22 01:25:14;;;;;;;11.68;9.65;;;;;;;26.09;100.00;96546.91;6214773;23;20086;-80
2023/08/22 01:27:50;;;;;;;13.50;10.15;;;;;;;26.10;100.00;96547.72;6189880;23;20022;-80
2023/08/22 01:30:22;;;;;;;14.02;10.10;;;;;;;26.05;100.00;96548.44;6213760;23;20008;-80
2023/08/22 01:32:51;;;;;;;;;;;;;;;26.00;100.00;96550.28;6215353;23;20023;-80
2023/08/22 01:35:22;;;;;;;14.85;9.77;;;;;;;26.15;100.00;96541.56;6188402;23;19915;-80
2023/08/22 01:37:49;;;;;;;16.55;11.07;;;;;;;25.97;100.00;96540.81;6189341;23;20086;-80
2023/08/22 01:40:15;;;;;;;14.13;10.82;;;;;;;25.83;100.00;96542.25;6213669;23;20066;-80
2023/08/22 01:42:42;;;;;;;12.30;9.68;;;;;;;25.88;100.00;96541.47;6188513;23;20102;-80
2023/08/22 01:45:07;;;;;;;13.00;10.75;;;;;;;25.66;100.00;96541.44;6189353;23;20000;-80
2023/08/22 01:47:35;;;;;;;14.95;10.60;;;;;;;25.87;100.00;96537.97;6189438;23;20042;-80
2023/08/22 01:50:04;;;;;;;11.23;8.95;;;;;;;25.90;100.00;96537.47;6188751;23;20012;-80
2023/08/22 01:52:36;;;;;;;12.30;9.93;;;;;;;25.85;100.00;96534.69;6187368;23;20011;-80
2023/08/22 01:55:03;;;;;;;16.30;9.90;;;;;;;25.96;100.00;96535.69;6188863;23;20081;-80
2023/08/22 01:57:29;;;;;;;11.85;9.43;;;;;;;25.93;100.00;96528.09;6189753;23;20027;-80
2023/08/22 01:59:55;;;;;;;15.30;10.45;;;;;;;26.04;100.00;96532.53;6214987;23;20440;-80
2023/08/22 02:02:21;;;;;;;13.85;9.48;;;;;;;25.83;100.00;96539.53;6190925;23;20008;-80
2023/08/22 02:04:46;;;;;;;13.65;9.93;;;;;;;25.59;100.00;96530.84;6191985;23;20436;-80
2023/08/22 02:07:12;;;;;;;15.13;9.82;;;;;;;25.37;100.00;96538.84;6191819;23;20050;-80
2023/08/22 02:09:38;;;;;;;13.93;9.52;;;;;;;25.53;100.00;96534.50;6192064;23;20004;-81
2023/08/22 02:12:03;;;;;;;12.48;9.60;;;;;;;25.61;100.00;96526.00;6192184;23;20004;-80
2023/08/22 02:14:29;;;;;;;13.85;9.25;;;;;;;25.36;100.00;96529.13;6192215;23;20083;-80
2023/08/22 02:16:58;;;;;;;14.07;10.02;;;;;;;25.33;100.00;96535.00;6192619;23;20024;-81
2023/08/22 02:19:24;;;;;;;10.40;8.70;;;;;;;25.07;100.00;96531.06;6192100;23;20636;-81
2023/08/22 02:21:49;;;;;;;11.15;9.38;;;;;;;25.23;100.00;96532.16;6191727;23;20015;-80
2023/08/22 02:24:15;;;;;;;11.45;8.73;;;;;;;25.13;100.00;96536.31;6217180;23;20027;-80
2023/08/22 02:26:42;;;;;;;14.95;9.70;;;;;;;25.24;100.00;96531.09;6191674;23;20031;-80
2023/08/22 02:29:09;;;;;;;18.50;10.10;;;;;;;25.22;100.00;96525.13;6192671;23;20023;-80
2023/08/22 02:31:34;;;;;;;15.65;9.70;;;;;;;25.12;100.00;96526.63;6193631;23;20030;-80
2023/08/22 02:34:02;;;;;;;10.38;9.27;;;;;;;25.07;100.00;96531.88;6193724;23;20425;-80
2023/08/22 02:36:27;;;;;;;12.73;10.18;;;;;;;25.05;100.00;96530.47;6193292;23;20039;-80
2023/08/22 02:38:53;;;;;;;12.98;10.93;;;;;;;24.70;100.00;96526.13;6193290;23;20476;-79
2023/08/22 02:41:19;;;;;;;11.48;9.68;;;;;;;24.52;100.00;96529.84;6192678;23;20011;-80
2023/08/22 02:43:45;;;;;;;15.13;10.00;;;;;;;24.76;100.00;96524.34;6193791;23;20000;-80
2023/08/22 02:46:28;;;;;;;14.45;10.18;;;;;;;24.90;100.00;96515.72;6188494;23;20484;-79
2023/08/22 02:48:53;;;;;;;14.23;10.57;;;;;;;25.06;100.00;96519.47;6193546;23;20196;-79
2023/08/22 02:51:19;;;;;;;17.48;10.70;;;;;;;24.88;100.00;96512.47;6192956;23;20018;-80
2023/08/22 02:53:44;;;;;;;10.90;9.40;;;;;;;24.98;100.00;96517.16;6193806;23;20004;-80
2023/08/22 02:56:11;;;;;;;11.93;9.73;;;;;;;24.94;100.00;96516.03;6193904;23;20475;-79
2023/08/22 02:58:37;;;;;;;13.95;9.93;;;;;;;25.06;100.00;96514.09;6194646;23;20030;-80
2023/08/22 03:01:06;;;;;;;10.00;8.90;;;;;;;24.81;100.00;96519.84;6218084;23;19996;-80
2023/08/22 03:03:32;;;;;;;12.60;8.85;;;;;;;24.92;100.00;96518.16;6215034;23;20002;-80
2023/08/22 03:05:58;;;;;;;17.27;9.82;;;;;;;24.92;100.00;96523.56;6190232;23;20004;-80
2023/08/22 03:08:24;;;;;;;16.35;9.23;;;;;;;24.78;100.00;96523.06;6190513;23;20020;-79
2023/08/22 03:10:50;;;;;;;12.32;9.50;;;;;;;24.92;100.00;96524.38;6189778;23;20013;-79
2023/08/22 03:13:18;;;;;;;13.77;9.30;;;;;;;25.00;100.00;96520.44;6191914;23;20004;-79
2023/08/22 03:15:45;;;;;;;11.75;9.00;;;;;;;24.80;100.00;96528.19;6190737;23;20061;-79
2023/08/22 03:18:11;;;;;;;11.07;8.80;;;;;;;25.01;100.00;96527.44;6190474;23;20004;-79
2023/08/22 03:20:36;;;;;;;12.60;8.70;;;;;;;25.09;100.00;96529.75;6189897;23;20066;-80
2023/08/22 03:23:04;;;;;;;20.13;10.45;;;;;;;24.77;100.00;96534.03;6215845;23;20340;-79
2023/08/22 03:25:30;;;;;;;12.93;8.63;;;;;;;24.80;100.00;96530.88;6216085;23;20008;-79
2023/08/22 03:27:56;;;;;;;16.33;10.30;;;;;;;24.61;100.00;96539.13;6215403;23;20336;-79
2023/08/22 03:30:22;;;;;;;14.52;10.27;;;;;;;24.56;100.00;96536.34;6190703;23;20019;-79
2023/08/22 03:32:48;;;;;;;13.95;8.98;;;;;;;24.60;100.00;96526.75;6191751;23;20007;-79
2023/08/22 03:35:14;;;;;;;16.75;9.90;;;;;;;24.45;100.00;96524.59;6189883;23;20433;-82
2023/08/22 03:37:41;;;;;;;14.23;10.70;;;;;;;24.39;100.00;96528.22;6191075;23;20099;-80
2023/08/22 03:40:15;;;;;;;15.68;9.30;;;;;;;24.56;100.00;96527.47;6189270;23;20396;-79
2023/08/22 03:42:42;;;;;;;13.43;10.45;;;;;;;24.49;100.00;96519.56;6190330;23;20012;-79
2023/08/22 03:45:09;;;;;;;14.20;8.85;;;;;;;24.46;100.00;96520.03;6189479;23;20432;-79
2023/08/22 03:47:37;;;;;;;14.60;9.63;;;;;;;24.13;100.00;96515.31;6189766;23;20050;-79
2023/08/22 03:50:03;;;;;;;16.92;10.15;;;;;;;23.96;100.00;96509.88;6190232;23;20062;-80
2023/08/22 03:52:30;;;;;;;18.45;10.13;;;;;;;23.96;100.00;96516.06;6190067;23;20000;-79
2023/08/22 03:54:55;;;;;;;12.18;10.02;;;;;;;24.04;100.00;96517.56;6189814;23;20053;-79
2023/08/22 03:57:21;;;;;;;16.58;10.57;;;;;;;24.23;100.00;96515.53;6216014;23;20079;-79
2023/08/22 03:59:47;;;;;;;15.00;10.60;;;;;;;24.04;100.00;96512.19;6190022;23;20656;-79
2023/08/22 04:02:14;;;;;;;17.40;10.98;;;;;;;24.05;100.00;96513.84;6189914;23;20016;-79
2023/08/22 04:04:40;;;;;;;15.40;10.45;;;;;;;24.17;100.00;96511.09;6215141;23;20008;-80
2023/08/22 04:07:05;;;;;;;15.35;10.77;;;;;;;24.25;100.00;96516.13;6190413;23;20054;-79
2023/08/22 04:09:31;;;;;;;18.80;10.40;;;;;;;24.41;100.00;96522.63;6189963;23;20012;-79
2023/08/22 04:11:58;;;;;;;12.70;9.52;;;;;;;24.23;100.00;96521.72;6188393;23;20065;-79
2023/08/22 04:14:24;;;;;;;15.00;9.93;;;;;;;24.31;100.00;96519.69;6188148;23;20039;-79
2023/08/22 04:16:49;;;;;;;11.13;8.48;;;;;;;24.21;100.00;96534.59;6188579;23;20345;-79
2023/08/22 04:19:15;;;;;;;11.10;8.55;;;;;;;24.16;100.00;96528.28;6213963;23;20012;-79
2023/08/22 04:21:42;;;;;;;11.75;8.32;;;;;;;24.09;100.00;96524.91;6214604;23;19999;-80
2023/08/22 04:24:09;;;;;;;17.42;10.57;;;;;;;24.34;100.00;96533.47;6189377;23;20008;-79
2023/08/22 04:26:35;;;;;;;20.25;10.07;;;;;;;24.17;100.00;96527.22;6189953;23;20047;-79
2023/08/22 04:29:00;;;;;;;13.25;9.93;;;;;;;24.19;100.00;96528.63;6189971;23;20016;-79
2023/08/22 04:31:29;;;;;;;14.65;9.80;;;;;;;24.18;100.00;96529.69;6189296;23;20446;-79
2023/08/22 04:33:54;;;;;;;14.75;10.02;;;;;;;24.26;100.00;96527.69;6213382;23;20008;-79
2023/08/22 04:36:21;;;;;;;18.02;9.75;;;;;;;24.25;100.00;96524.19;6186556;23;20011;-79
2023/08/22 04:38:49;;;;;;;16.20;8.65;;;;;;;24.28;100.00;96528.22;6187016;23;20344;-78
2023/08/22 04:41:16;;;;;;;16.83;9.43;;;;;;;24.21;100.00;96537.28;6186418;23;20008;-79
2023/08/22 04:43:55;;;;;;;15.43;8.23;;;;;;;24.19;100.00;96536.69;6189169;23;20012;-79
2023/08/22 04:46:20;;;;;;;17.73;10.88;;;;;;;24.10;100.00;96532.72;6186873;23;20019;-79
2023/08/22 04:49:04;;;;;;;11.57;9.75;;;;;;;24.14;100.00;96533.88;6191021;23;20004;-80
2023/08/22 04:51:30;;;;;;;17.48;9.35;;;;;;;23.88;100.00;96532.56;6189356;23;20003;-80
2023/08/22 04:53:55;;;;;;;13.50;9.88;;;;;;;23.94;100.00;96534.31;6189348;23;20000;-80
2023/08/22 04:56:23;;;;;;;19.63;9.85;;;;;;;23.93;100.00;96535.34;6189918;23;20007;-80
2023/08/22 04:58:49;;;;;;;13.80;9.98;;;;;;;24.02;100.00;96529.63;6215082;23;20615;-80
2023/08/22 05:01:15;;;;;;;15.77;9.57;;;;;;;24.18;100.00;96539.63;6189146;23;20000;-80
2023/08/22 05:03:41;;;;;;;13.75;9.77;;;;;;;24.38;100.00;96539.19;6188616;23;20534;-80
2023/08/22 05:06:07;;;;;;;19.95;9.18;;;;;;;24.60;100.00;96547.44;6189078;23;20043;-80
2023/08/22 05:08:32;;;;;;;18.00;9.57;;;;;;;24.72;100.00;96544.72;6189861;23;20035;-80
2023/08/22 05:11:02;;;;;;;14.98;8.75;;;;;;;24.67;100.00;96548.91;6189161;23;20004;-80
2023/08/22 05:13:31;;;;;;;14.45;9.48;;;;;;;25.05;100.00;96547.47;6188140;23;20030;-80
2023/08/22 05:15:57;;;;;;;19.35;9.85;;;;;;;24.87;100.00;96547.66;6189305;23;20004;-81
2023/08/22 05:18:23;;;;;;;14.85;8.85;;;;;;;25.17;100.00;96548.22;6189179;23;20014;-80
2023/08/22 05:20:50;;;;;;;14.07;9.55;;;;;;;25.42;100.00;96549.69;6187541;23;20031;-80
2023/08/22 05:23:16;;;;;;;14.02;9.70;;;;;;;25.24;100.00;96549.94;6214229;23;20004;-80
2023/08/22 05:25:42;;;;;;;15.30;8.82;;;;;;;25.63;100.00;96543.53;6189445;23;20008;-80
2023/08/22 05:28:08;;;;;;;10.77;8.88;;;;;;;25.87;100.00;96551.44;6214784;23;20016;-81
2023/08/22 05:30:37;;;;;;;14.52;10.05;;;;;;;25.82;100.00;96548.66;6189173;23;20066;-83
2023/08/22 05:33:02;;;;;;;13.32;9.40;;;;;;;25.71;100.00;96552.25;6214886;23;19998;-81
2023/08/22 05:35:28;;;;;;;14.00;10.00;;;;;;;25.98;100.00;96550.50;6187994;23;20008;-81
2023/08/22 05:37:54;;;;;;;13.85;10.88;;;;;;;26.41;100.00;96553.47;6189474;23;20004;-81
2023/08/22 05:40:25;;;;;;;12.30;10.43;;;;;;;26.49;100.00;96555.75;6188215;23;20074;-81
2023/08/22 05:42:56;;;;;;;15.05;10.38;;;;;;;26.83;100.00;96550.16;6213965;23;20030;-81
2023/08/22 05:45:22;;;;;;;11.65;10.43;;;;;;;26.81;100.00;96550.44;6214533;23;20058;-81
2023/08/22 05:47:49;;;;;;;13.70;10.60;;;;;;;26.77;100.00;96560.09;6190148;23;20038;-83
2023/08/22 05:50:15;;;;;;;15.20;12.10;;;;;;;26.53;100.00;96556.91;6213438;23;20368;-81
2023/08/22 05:52:40;;;;;;;14.90;12.25;;;;;;;26.72;100.00;96554.66;6188896;23;20023;-82
2023/08/22 05:55:07;;;;;;;13.25;11.02;;;;;;;27.19;100.00;96556.75;6189219;23;20004;-81
2023/08/22 05:57:33;;;;;;;13.25;11.30;;;;;;;27.26;100.00;96557.34;6215640;23;20012;-80
2023/08/22 06:00:00;;;;;;;13.57;11.60;;;;;;;27.37;100.00;96548.25;6189836;23;20081;-81
2023/08/22 06:02:44;;;;;;;12.15;10.70;;;;;;;27.54;100.00;96558.13;6213885;23;20077;-81
2023/08/22 06:05:14;;;;;;;20.67;11.25;;;;;;;27.77;100.00;96556.91;6189364;23;20008;-81
2023/08/22 06:07:48;;;;;;;14.82;12.05;;;;;;;28.03;100.00;96558.69;6189145;23;20429;-81
2023/08/22 06:10:16;;;;;;;12.65;9.95;;;;;;;28.22;100.00;96553.66;6213844;23;20000;-80
2023/08/22 06:12:48;;;;;;;14.85;11.23;;;;;;;28.01;100.00;96557.34;6213407;23;20004;-80
2023/08/22 06:15:17;;;;;;;14.20;11.00;;;;;;;28.03;100.00;96556.00;6188387;23;20979;-80
2023/08/22 06:17:43;;;;;;;16.17;11.98;;;;;;;28.16;100.00;96554.72;6188425;23;20008;-81
2023/08/22 06:20:08;;;;;;;13.98;10.07;;;;;;;28.66;100.00;96561.41;6188754;23;20498;-80
2023/08/22 06:22:34;;;;;;;12.88;10.73;;;;;;;28.50;100.00;96562.44;6240001;23;20012;-80
2023/08/22 06:25:00;;;;;;;11.85;10.63;;;;;;;28.88;100.00;96566.63;6188046;23;20341;-82
2023/08/22 06:27:28;;;;;;;14.13;9.48;;;;;;;29.30;100.00;96563.69;6189032;23;20611;-81
2023/08/22 06:30:00;;;;;;;12.32;10.27;;;;;;;28.86;100.00;96575.00;6188978;23;20019;-81
2023/08/22 06:32:26;;;;;;;;;;;;;;;28.00;100.00;96566.53;6188843;23;20008;-82
2023/08/22 06:34:52;;;;;;;12.48;10.07;;;;;;;28.65;100.00;96573.34;6188593;23;20018;-81
2023/08/22 06:37:19;;;;;;;17.77;11.23;;;;;;;29.28;100.00;96567.78;6164003;23;20099;-81
2023/08/22 06:39:44;;;;;;;16.02;10.88;;;;;;;29.40;100.00;96571.03;6189104;23;20016;-81
2023/08/22 06:42:14;;;;;;;13.32;11.07;;;;;;;29.43;100.00;96566.97;6213843;23;20034;-81
2023/08/22 06:44:43;;;;;;;11.35;10.15;;;;;;;29.76;100.00;96566.41;6190170;23;20090;-82
2023/08/22 06:47:09;;;;;;;14.73;9.68;;;;;;;29.56;100.00;96569.94;6188999;23;20008;-82
2023/08/22 06:49:35;;;;;;;12.57;10.07;;;;;;;29.31;100.00;96565.34;6188384;23;20508;-82
2023/08/22 06:52:14;;;;;;;12.55;8.95;;;;;;;29.80;100.00;96567.50;6188350;23;20000;-82
2023/08/22 06:54:39;;;;;;;12.77;9.38;;;;;;;30.29;100.00;96561.44;6188823;23;20351;-82
2023/08/22 06:57:06;;;;;;;11.63;9.18;;;;;;;30.50;100.00;96564.84;6188652;23;20008;-82
2023/08/22 06:59:31;;;;;;;11.57;9.57;;;;;;;30.31;100.00;96569.28;6213072;23;20429;-82
2023/08/22 07:02:01;;;;;;;11.98;9.57;;;;;;;30.87;100.00;96560.09;6212129;23;20012;-82
2023/08/22 07:04:29;;;;;;;13.85;10.18;;;;;;;30.90;100.00;96557.63;6188598;23;20087;-82
2023/08/22 07:06:55;;;;;;;13.32;9.63;;;;;;;31.04;100.00;96554.28;6187968;23;20000;-82
2023/08/22 07:09:20;;;;;;;10.57;9.50;;;;;;;30.92;100.00;96566.31;6188807;23;19997;-81
2023/08/22 07:11:53;;;;;;;13.18;10.20;;;;;;;31.24;100.00;96565.78;6187858;23;20007;-82
2023/08/22 07:14:18;;;;;;;;;;;;;;;31.76;100.00;96558.06;6189919;23;20855;-80
2023/08/22 07:16:45;;;;;;;9.93;8.50;;;;;;;32.25;100.00;96554.28;6213332;23;19986;-81
2023/08/22 07:19:10;;;;;;;12.60;8.32;;;;;;;32.38;100.00;96560.94;6189907;23;20083;-81
2023/08/22 07:21:36;;;;;;;10.13;8.57;;;;;;;32.70;100.00;96554.84;6190669;23;20034;-81
2023/08/22 07:24:03;;;;;;;12.20;8.48;;;;;;;32.97;100.00;96559.66;6190303;23;20005;-81
2023/08/22 07:26:39;;;;;;;16.77;8.93;;;;;;;33.63;100.00;96563.25;6215657;23;20010;-81
2023/08/22 07:29:05;;;;;;;10.65;7.32;;;;;;;34.16;100.00;96567.50;6190114;23;20040;-81
2023/08/22 07:31:31;;;;;;;10.80;7.43;;;;;;;34.58;100.00;96566.41;6190697;23;20007;-81
2023/08/22 07:33:58;;;;;;;12.38;8.20;;;;;;;34.31;100.00;96559.03;6190371;23;20004;-81
2023/08/22 07:36:24;;;;;;;9.32;7.88;;;;;;;34.24;100.00;96566.81;6190447;23;20340;-81
2023/08/22 07:38:49;;;;;;;9.57;7.03;;;;;;;34.97;100.00;96562.25;6189576;23;20029;-81
2023/08/22 07:41:16;;;;;;;10.43;7.38;;;;;;;35.46;100.00;96568.00;6213631;23;20000;-81
2023/08/22 07:43:42;;;;;;;10.70;7.40;;;;;;;35.03;100.00;96558.34;6190555;23;20035;-81
2023/08/22 07:46:07;;;;;;;9.13;7.55;;;;;;;35.58;100.00;96565.50;6214766;23;20004;-81
2023/08/22 07:48:33;;;;;;;9.63;7.78;;;;;;;35.27;97.47;96563.50;6215088;23;20004;-81
2023/08/22 07:50:59;;;;;;;11.43;7.28;;;;;;;35.79;92.15;96558.41;6189616;23;20382;-81
2023/08/22 07:53:24;;;;;;;11.43;8.00;;;;;;;35.77;95.85;96568.03;6215600;23;20004;-81
2023/08/22 07:55:50;;;;;;;10.52;7.30;;;;;;;36.21;88.52;96569.88;6215630;23;20000;-81
2023/08/22 07:58:16;;;;;;;10.07;6.85;;;;;;;36.02;92.03;96566.59;6190207;23;20023;-81
2023/08/22 08:00:57;;;;;;;10.07;6.93;;;;;;;36.24;90.79;96563.78;6215319;23;20008;-81
2023/08/22 08:03:23;;;;;;;12.95;7.53;;;;;;;37.62;86.94;96567.03;6190619;23;20070;-82
2023/08/22 08:05:48;;;;;;;10.73;6.75;;;;;;;37.71;77.07;96574.13;6189604;23;20012;-81
2023/08/22 08:08:22;;;;;;;8.98;7.30;;;;;;;36.44;83.02;96567.06;6189435;23;20081;-81
2023/08/22 08:10:47;;;;;;;8.98;7.25;;;;;;;36.93;81.73;96565.09;6214420;23;20010;-81
2023/08/22 08:13:14;;;;;;;8.75;7.20;;;;;;;36.94;82.68;96569.44;6190024;23;20628;-81
2023/08/22 08:15:41;;;;;;;9.90;7.18;;;;;;;36.76;79.25;96566.69;6214081;23;20000;-81
2023/08/22 08:18:06;;;;;;;9.15;7.30;;;;;;;37.77;77.47;96573.97;6189095;23;20070;-81
2023/08/22 08:20:32;;;;;;;9.90;7.43;;;;;;;37.43;76.47;96572.88;6190300;23;20425;-81
2023/08/22 08:22:58;;;;;;;9.43;7.03;;;;;;;37.28;81.76;96574.97;6215209;23;20587;-81
2023/08/22 08:25:23;;;;;;;11.63;7.60;;;;;;;37.94;76.56;96582.19;6190924;23;20004;-81
2023/08/22 08:27:49;;;;;;;8.38;6.88;;;;;;;38.08;74.78;96566.31;6189759;23;20039;-82
2023/08/22 08:30:18;;;;;;;10.15;7.00;;;;;;;37.53;75.45;96578.06;6215248;23;20000;-81
2023/08/22 08:32:43;;;;;;;10.27;7.20;;;;;;;37.56;80.02;96574.66;6190635;23;20500;-81
2023/08/22 08:35:09;;;;;;;12.70;6.47;;;;;;;38.03;75.17;96579.41;6190079;23;20015;-81
2023/08/22 08:37:35;;;;;;;9.50;7.70;;;;;;;37.69;72.86;96578.31;6190757;23;20809;-81
2023/08/22 08:40:00;;;;;;;8.93;6.45;;;;;;;38.90;67.76;96568.81;6190184;23;20000;-81
2023/08/22 08:42:36;;;;;;;7.95;6.15;;;;;;;39.32;64.17;96566.88;6188643;23;20095;-82
2023/08/22 08:45:06;;;;;;;10.48;6.35;;;;;;;39.26;65.59;96572.91;6190766;23;20008;-82
2023/08/22 08:47:33;;;;;;;9.45;6.28;;;;;;;39.30;57.99;96569.16;6189908;23;20008;-81
2023/08/22 08:50:06;;;;;;;12.23;7.15;;;;;;;39.60;57.58;96574.56;6190712;23;20011;-81
2023/08/22 08:52:32;;;;;;;8.98;6.75;;;;;;;39.39;58.74;96573.81;6189915;23;20004;-82
2023/08/22 08:55:00;;;;;;;10.25;7.38;;;;;;;39.12;61.44;96570.44;6190352;23;20011;-88
2023/08/22 08:57:29;;;;;;;10.18;6.32;;;;;;;39.85;59.98;96572.72;6215497;23;20035;-82
2023/08/22 09:00:04;;;;;;;8.68;6.13;;;;;;;39.29;58.54;96575.00;6190218;23;20018;-82
2023/08/22 09:02:31;;;;;;;10.10;6.75;;;;;;;38.84;62.07;96572.91;6188290;23;20011;-81
2023/08/22 09:04:57;;;;;;;9.30;6.82;;;;;;;38.77;63.08;96580.84;6241149;23;20000;-81
2023/08/22 09:07:23;;;;;;;7.32;6.50;;;;;;;39.04;63.54;96569.38;6240984;23;20000;-82
2023/08/22 09:09:53;;;;;;;8.40;6.72;;;;;;;39.86;61.16;96579.03;6189905;23;20399;-81
2023/08/22 09:12:18;;;;;;;9.10;6.55;;;;;;;40.41;57.43;96573.03;6189094;23;20518;-81
2023/08/22 09:14:45;;;;;;;8.65;5.95;;;;;;;40.17;57.10;96584.03;6189333;23;20073;-81
2023/08/22 09:17:16;;;;;;;10.77;6.97;;;;;;;39.46;62.62;96572.09;6213198;23;20012;-81
2023/08/22 09:19:42;;;;;;;8.05;6.70;;;;;;;39.49;61.12;96576.94;6189098;23;20004;-81
2023/08/22 09:22:15;;;;;;;11.63;6.90;;;;;;;39.74;61.01;96575.09;6213886;23;20008;-82
2023/08/22 09:24:54;;;;;;;8.75;7.15;;;;;;;39.83;60.88;96569.50;6189802;23;20143;-81
2023/08/22 09:27:41;;;;;;;8.38;6.13;;;;;;;40.30;55.42;96566.38;6214015;23;20004;-82
2023/08/22 09:30:07;;;;;;;8.45;6.30;;;;;;;40.85;54.31;96558.66;6189515;23;20000;-81
2023/08/22 09:32:33;;;;;;;10.30;6.32;;;;;;;40.69;53.08;96569.59;6189001;23;20004;-81
2023/08/22 09:35:00;;;;;;;9.50;6.75;;;;;;;41.27;50.74;96569.38;6189515;23;20019;-82
2023/08/22 09:37:30;;;;;;;7.28;6.40;;;;;;;40.83;53.42;96566.47;6189507;23;20110;-82
2023/08/22 09:39:56;;;;;;;9.23;6.68;;;;;;;38.79;62.28;96573.06;6214583;23;20058;-81
2023/08/22 09:42:23;;;;;;;10.93;7.05;;;;;;;39.10;63.54;96572.72;6187973;23;20013;-81
2023/08/22 09:44:50;;;;;;;10.20;7.03;;;;;;;39.40;62.00;96562.44;6214812;23;20074;-82
2023/08/22 09:47:17;;;;;;;9.75;6.95;;;;;;;39.36;62.91;96561.50;6189976;23;20058;-81
2023/08/22 09:49:48;;;;;;;7.70;5.43;;;;;;;40.51;56.30;96556.03;6188950;23;20008;-81
2023/08/22 09:52:14;;;;;;;9.00;6.35;;;;;;;40.38;56.48;96559.97;6188502;23;20011;-81
2023/08/22 09:54:43;;;;;;;8.73;6.50;;;;;;;39.69;55.92;96555.22;6189387;23;20000;-81
2023/08/22 09:57:10;;;;;;;8.65;6.35;;;;;;;41.08;54.65;96558.97;6189691;23;20436;-81
2023/08/22 09:59:37;;;;;;;10.07;5.88;;;;;;;41.01;51.80;96551.28;6214194;23;20008;-81
2023/08/22 10:02:05;;;;;;;7.90;5.85;;;;;;;40.93;48.78;96546.69;6188537;23;20057;-81
2023/08/22 10:04:32;;;;;;;7.18;5.68;;;;;;;40.93;48.94;96544.72;6241297;23;20023;-82
2023/08/22 10:06:57;;;;;;;6.20;5.10;;;;;;;39.65;54.36;96557.03;6164388;23;20012;-82
2023/08/22 10:09:23;;;;;;;8.20;5.88;;;;;;;39.58;54.60;96554.84;6188398;23;20321;-81
2023/08/22 10:11:49;;;;;;;7.63;5.63;;;;;;;39.31;58.07;96546.03;6188614;23;20004;-81
2023/08/22 10:14:27;;;;;;;7.55;5.53;;;;;;;40.95;50.90;96550.72;6213074;23;20008;-83
2023/08/22 10:16:55;;;;;;;7.18;6.03;;;;;;;41.05;47.10;96546.69;6214547;23;20004;-82
2023/08/22 10:19:23;;;;;;;7.90;5.57;;;;;;;40.78;50.36;96551.00;6212789;23;20008;-81
2023/08/22 10:21:49;;;;;;;7.72;5.40;;;;;;;41.49;48.51;96548.75;6213754;23;20004;-82
2023/08/22 10:24:30;;;;;;;9.00;5.72;;;;;;;40.69;51.50;96544.78;6214711;23;20090;-81
2023/08/22 10:27:07;;;;;;;11.27;5.55;;;;;;;42.12;47.53;96549.66;6189720;23;20011;-82
2023/08/22 10:29:46;;;;;;;7.82;5.80;;;;;;;41.64;48.16;96554.28;6189737;23;20035;-81
2023/08/22 10:32:12;;;;;;;7.28;5.97;;;;;;;41.50;48.47;96545.63;6188857;23;20004;-83
2023/08/22 10:34:37;;;;;;;7.32;5.95;;;;;;;40.60;47.75;96546.88;6188630;23;20491;-82
2023/08/22 10:37:18;;;;;;;6.72;5.38;;;;;;;40.35;51.00;96546.06;6189214;23;20043;-82
2023/08/22 10:39:46;;;;;;;8.38;5.13;;;;;;;41.20;47.45;96545.13;6214415;23;20011;-82
2023/08/22 10:42:14;;;;;;;7.68;5.45;;;;;;;41.63;47.76;96551.88;6239787;23;20011;-81
2023/08/22 10:44:49;;;;;;;6.75;5.63;;;;;;;42.25;42.90;96544.81;6189709;23;20479;-82
2023/08/22 10:47:19;;;;;;;7.85;4.93;;;;;;;42.98;43.35;96543.38;6189608;23;20008;-82
2023/08/22 10:49:55;;;;;;;7.22;5.10;;;;;;;40.68;50.41;96544.00;6214145;23;20115;-82
2023/08/22 10:52:29;;;;;;;10.43;5.22;;;;;;;40.88;48.54;96547.75;6215843;23;20012;-81
2023/08/22 10:54:57;;;;;;;7.10;4.75;;;;;;;40.94;47.03;96538.06;6215706;23;20078;-82
2023/08/22 10:57:24;;;;;;;6.38;4.70;;;;;;;40.62;47.58;96539.06;6216150;23;19996;-82
2023/08/22 11:00:12;;;;;;;7.45;5.05;;;;;;;40.51;45.63;96534.00;6190988;23;20028;-81
2023/08/22 11:02:42;;;;;;;5.43;4.65;;;;;;;41.63;43.37;96533.34;6190429;23;20004;-82
2023/08/22 11:05:12;;;;;;;6.70;4.57;;;;;;;39.94;49.41;96536.81;6190158;23;20008;-81
2023/08/22 11:07:42;;;;;;;6.60;4.25;;;;;;;39.10;49.26;96534.19;6190447;23;20012;-82
2023/08/22 11:10:12;;;;;;;7.07;3.20;;;;;;;40.42;42.85;96530.56;6191451;23;20032;-81
2023/08/22 11:12:38;;;;;;;5.60;3.38;;;;;;;39.39;44.54;96536.06;6215432;23;20000;-81
2023/08/22 11:15:04;;;;;;;7.15;2.97;;;;;;;39.57;44.99;96533.94;6190746;23;20004;-81
2023/08/22 11:17:30;;;;;;;4.72;3.10;;;;;;;39.92;44.94;96528.09;6189377;23;20035;-81
2023/08/22 11:19:57;;;;;;;6.30;3.55;;;;;;;40.85;41.83;96525.56;6214972;23;20004;-81
2023/08/22 11:22:23;;;;;;;6.25;3.85;;;;;;;40.85;41.23;96526.38;6242337;23;20015;-82